createdAt,value
2022-09-03T00:02:26.793Z,16.80
2022-09-03T00:05:01.744Z,16.90
2022-09-03T00:07:35.977Z,16.90
2022-09-03T00:10:08.896Z,16.90
2022-09-03T00:12:43.326Z,17.00
2022-09-03T00:15:15.044Z,17.00
2022-09-03T00:17:48.703Z,16.90
2022-09-03T00:20:21.074Z,17.00
2022-09-03T00:22:51.849Z,16.90
2022-09-03T00:25:25.175Z,17.00
2022-09-03T00:27:59.663Z,17.10
2022-09-03T00:30:29.036Z,17.30
2022-09-03T00:33:05.688Z,17.20
2022-09-03T00:35:36.811Z,17.10
2022-09-03T00:38:05.781Z,17.10
2022-09-03T00:41:01.646Z,17.10
2022-09-03T00:43:42.475Z,17.10
2022-09-03T00:46:19.606Z,17.20
2022-09-03T00:49:01.899Z,17.20
2022-09-03T00:51:41.950Z,17.20
2022-09-03T00:54:16.846Z,17.10
2022-09-03T00:56:51.736Z,17.10
2022-09-03T00:59:31.564Z,17.10
2022-09-03T01:02:09.387Z,17.00
2022-09-03T01:04:50.704Z,17.00
2022-09-03T01:07:33.261Z,17.00
2022-09-03T01:10:11.669Z,17.10
2022-09-03T01:12:51.719Z,17.10
2022-09-03T01:15:30.489Z,17.10
2022-09-03T01:18:08.464Z,17.20
2022-09-03T01:20:50.409Z,17.10
2022-09-03T01:23:49.535Z,17.10
2022-09-03T01:26:31.762Z,17.10
2022-09-03T01:29:12.315Z,17.00
2022-09-03T01:31:49.212Z,17.00
2022-09-03T01:34:25.551Z,17.00
2022-09-03T01:37:05.268Z,17.00
2022-09-03T01:39:42.999Z,17.10
2022-09-03T01:42:23.658Z,17.10
2022-09-03T01:45:11.750Z,17.10
2022-09-03T01:47:53.228Z,17.10
2022-09-03T01:50:34.062Z,17.20
2022-09-03T01:53:09.364Z,17.30
2022-09-03T01:55:45.287Z,17.40
2022-09-03T01:58:20.145Z,17.40
2022-09-03T02:00:56.557Z,17.50
2022-09-03T02:03:26.068Z,17.50
2022-09-03T02:05:54.046Z,17.50
2022-09-03T02:08:21.856Z,17.40
2022-09-03T02:10:53.487Z,17.40
2022-09-03T02:13:25.813Z,17.40
2022-09-03T02:16:00.657Z,17.50
2022-09-03T02:18:32.499Z,17.70
2022-09-03T02:21:01.495Z,17.90
2022-09-03T02:23:29.889Z,18.20
2022-09-03T02:26:00.722Z,18.40
2022-09-03T02:28:30.695Z,18.60
2022-09-03T02:31:00.274Z,18.70
2022-09-03T02:33:28.658Z,18.80
2022-09-03T02:35:56.755Z,18.80
2022-09-03T02:38:26.437Z,18.90
2022-09-03T02:40:54.805Z,18.90
2022-09-03T02:43:27.524Z,18.80
2022-09-03T02:46:02.269Z,18.70
2022-09-03T02:48:30.284Z,18.60
2022-09-03T02:50:58.096Z,18.40
2022-09-03T02:53:28.271Z,18.40
2022-09-03T02:56:00.184Z,18.40
2022-09-03T02:58:28.197Z,18.30
2022-09-03T03:00:56.471Z,18.30
2022-09-03T03:03:26.027Z,18.30
2022-09-03T03:05:56.519Z,18.40
2022-09-03T03:08:27.680Z,18.30
2022-09-03T03:10:58.821Z,18.30
2022-09-03T03:13:27.216Z,18.30
2022-09-03T03:15:57.746Z,18.30
2022-09-03T03:18:27.613Z,18.30
2022-09-03T03:20:56.019Z,18.30
2022-09-03T03:23:23.899Z,18.20
2022-09-03T03:25:51.737Z,18.20
2022-09-03T03:28:20.771Z,18.20
2022-09-03T03:30:48.955Z,18.20
2022-09-03T03:33:17.039Z,18.20
2022-09-03T03:35:46.153Z,18.20
2022-09-03T03:38:13.970Z,18.00
2022-09-03T03:40:41.774Z,18.00
2022-09-03T03:43:09.570Z,17.90
2022-09-03T03:45:37.410Z,17.70
2022-09-03T03:48:05.484Z,17.70
2022-09-03T03:50:33.291Z,17.70
2022-09-03T03:53:03.038Z,17.80
2022-09-03T03:55:35.152Z,17.90
2022-09-03T03:58:03.185Z,17.90
2022-09-03T04:00:31.013Z,17.80
2022-09-03T04:03:01.130Z,17.80
2022-09-03T04:05:33.648Z,17.80
2022-09-03T04:08:04.063Z,17.80
2022-09-03T04:10:31.938Z,17.90
2022-09-03T04:13:00.988Z,17.90
2022-09-03T04:15:28.872Z,17.80
2022-09-03T04:17:56.684Z,17.80
2022-09-03T04:20:24.484Z,17.70
2022-09-03T04:22:52.288Z,17.70
2022-09-03T04:25:21.401Z,17.60
2022-09-03T04:27:49.661Z,17.50
2022-09-03T04:30:17.572Z,17.50
2022-09-03T04:32:54.526Z,17.40
2022-09-03T04:35:23.069Z,17.40
2022-09-03T04:37:50.903Z,17.30
2022-09-03T04:40:18.961Z,17.40
2022-09-03T04:42:48.079Z,17.40
2022-09-03T04:45:18.705Z,17.40
2022-09-03T04:47:47.421Z,17.40
2022-09-03T04:50:15.318Z,17.70
2022-09-03T04:52:43.126Z,17.70
2022-09-03T04:55:12.077Z,17.60
2022-09-03T04:57:39.888Z,17.60
2022-09-03T05:00:12.122Z,17.60
2022-09-03T05:02:40.008Z,17.60
2022-09-03T05:05:08.390Z,17.50
2022-09-03T05:07:38.677Z,17.40
2022-09-03T05:10:08.261Z,17.50
2022-09-03T05:12:36.696Z,17.50
2022-09-03T05:15:05.444Z,17.40
2022-09-03T05:17:37.697Z,17.40
2022-09-03T05:20:06.724Z,17.30
2022-09-03T05:22:35.372Z,17.40
2022-09-03T05:25:04.186Z,17.30
2022-09-03T05:27:32.591Z,17.40
2022-09-03T05:30:00.460Z,17.40
2022-09-03T05:32:31.005Z,17.50
2022-09-03T05:35:00.137Z,17.70
2022-09-03T05:37:27.940Z,17.80
2022-09-03T05:39:55.812Z,17.80
2022-09-03T05:42:23.649Z,17.90
2022-09-03T05:44:51.452Z,17.80
2022-09-03T05:47:19.340Z,17.70
2022-09-03T05:49:47.137Z,17.70
2022-09-03T05:52:16.893Z,17.60
2022-09-03T05:54:44.691Z,17.60
2022-09-03T05:57:13.103Z,17.60
2022-09-03T05:59:40.904Z,17.60
2022-09-03T06:02:08.774Z,17.70
2022-09-03T06:04:39.919Z,17.80
2022-09-03T06:07:08.452Z,17.80
2022-09-03T06:09:37.583Z,17.90
2022-09-03T06:12:05.732Z,17.90
2022-09-03T06:14:33.507Z,18.00
2022-09-03T06:17:01.315Z,17.90
2022-09-03T06:19:29.140Z,18.00
2022-09-03T06:21:56.909Z,18.10
2022-09-03T06:24:28.330Z,18.10
2022-09-03T06:26:58.149Z,18.10
2022-09-03T06:29:26.041Z,18.20
2022-09-03T06:31:53.893Z,18.20
2022-09-03T06:34:22.730Z,18.30
2022-09-03T06:36:52.789Z,18.50
2022-09-03T06:39:22.648Z,18.50
2022-09-03T06:41:52.065Z,18.70
2022-09-03T06:44:21.235Z,18.80
2022-09-03T06:46:49.060Z,18.80
2022-09-03T06:49:17.619Z,18.90
2022-09-03T06:51:45.423Z,18.90
2022-09-03T06:54:14.543Z,18.90
2022-09-03T06:56:42.899Z,19.00
2022-09-03T06:59:12.065Z,19.10
2022-09-03T07:01:44.336Z,19.10
2022-09-03T07:04:13.392Z,19.10
2022-09-03T07:06:43.232Z,19.10
2022-09-03T07:09:12.751Z,19.20
2022-09-03T07:11:46.876Z,19.20
2022-09-03T07:14:16.174Z,19.30
2022-09-03T07:16:46.083Z,19.50
2022-09-03T07:19:14.366Z,19.50
2022-09-03T07:21:48.107Z,19.50
2022-09-03T07:24:18.072Z,19.60
2022-09-03T07:26:46.980Z,19.50
2022-09-03T07:29:15.897Z,19.70
2022-09-03T07:31:45.443Z,19.70
2022-09-03T07:34:16.417Z,19.90
2022-09-03T07:36:48.701Z,20.10
2022-09-03T07:39:17.814Z,20.20
2022-09-03T07:41:46.719Z,20.50
2022-09-03T07:44:16.180Z,20.60
2022-09-03T07:46:47.300Z,20.90
2022-09-03T07:49:15.320Z,21.40
2022-09-03T07:51:43.139Z,22.20
2022-09-03T07:54:11.950Z,23.20
2022-09-03T07:56:41.113Z,24.10
2022-09-03T07:59:11.911Z,24.90
2022-09-03T08:01:41.659Z,25.60
2022-09-03T08:04:11.753Z,26.10
2022-09-03T08:06:40.202Z,26.20
2022-09-03T08:09:10.051Z,25.70
2022-09-03T08:11:39.544Z,25.30
2022-09-03T08:14:10.049Z,24.90
2022-09-03T08:16:41.687Z,24.60
2022-09-03T08:19:11.313Z,24.30
2022-09-03T08:21:42.014Z,23.90
2022-09-03T08:24:11.063Z,23.50
2022-09-03T08:26:41.856Z,23.30
2022-09-03T08:29:10.499Z,23.20
2022-09-03T08:31:38.918Z,23.10
2022-09-03T08:34:08.616Z,22.90
2022-09-03T08:36:41.237Z,22.90
2022-09-03T08:39:10.804Z,22.60
2022-09-03T08:42:02.116Z,22.50
2022-09-03T08:44:34.925Z,22.40
2022-09-03T08:47:11.160Z,22.30
2022-09-03T08:49:46.332Z,22.20
2022-09-03T08:52:25.408Z,22.00
2022-09-03T08:54:59.204Z,22.10
2022-09-03T08:57:27.247Z,22.10
2022-09-03T08:59:56.902Z,22.00
2022-09-03T09:02:36.208Z,21.90
2022-09-03T09:05:11.096Z,22.00
2022-09-03T09:07:50.391Z,22.00
2022-09-03T09:10:24.967Z,21.80
2022-09-03T09:13:04.714Z,21.70
2022-09-03T09:15:46.752Z,21.60
2022-09-03T09:18:24.474Z,21.40
2022-09-03T09:20:57.403Z,21.30
2022-09-03T09:23:32.041Z,21.30
2022-09-03T09:26:06.467Z,21.30
2022-09-03T09:28:37.650Z,21.10
2022-09-03T09:31:08.716Z,20.80
2022-09-03T09:33:37.564Z,20.40
2022-09-03T09:36:08.411Z,20.40
2022-09-03T09:38:39.235Z,20.20
2022-09-03T09:41:11.265Z,19.90
2022-09-03T09:43:39.291Z,19.60
2022-09-03T09:46:10.226Z,19.20
2022-09-03T09:48:46.464Z,19.00
2022-09-03T09:51:18.891Z,18.90
2022-09-03T09:53:48.209Z,18.90
2022-09-03T09:56:23.898Z,18.80
2022-09-03T09:58:52.643Z,18.80
2022-09-03T10:01:25.767Z,18.70
2022-09-03T10:03:55.618Z,18.60
2022-09-03T10:06:43.481Z,18.50
2022-09-03T10:09:15.849Z,18.50
2022-09-03T10:11:46.941Z,18.40
2022-09-03T10:14:21.304Z,18.30
2022-09-03T10:16:55.372Z,18.20
2022-09-03T10:19:34.567Z,18.10
2022-09-03T10:22:07.168Z,18.00
2022-09-03T10:24:45.987Z,18.00
2022-09-03T10:27:17.530Z,17.90
2022-09-03T10:29:46.147Z,17.90
2022-09-03T10:32:25.603Z,17.80
2022-09-03T10:35:10.288Z,17.80
2022-09-03T10:37:43.092Z,17.80
2022-09-03T10:40:30.754Z,17.80
2022-09-03T10:43:24.482Z,17.70
2022-09-03T10:46:03.142Z,17.60
2022-09-03T10:48:46.738Z,17.50
2022-09-03T10:51:20.416Z,17.50
2022-09-03T10:54:04.940Z,17.40
2022-09-03T10:56:43.052Z,17.30
2022-09-03T10:59:32.821Z,17.30
2022-09-03T11:02:18.627Z,17.30
2022-09-03T11:04:54.992Z,17.40
2022-09-03T11:07:27.200Z,17.50
2022-09-03T11:10:03.987Z,17.70
2022-09-03T11:12:40.319Z,17.80
2022-09-03T11:15:14.833Z,18.00
2022-09-03T11:17:47.998Z,18.20
2022-09-03T11:20:20.344Z,18.70
2022-09-03T11:22:51.608Z,19.50
2022-09-03T11:25:26.015Z,20.40
2022-09-03T11:28:04.004Z,20.90
2022-09-03T11:30:40.783Z,21.30
2022-09-03T11:33:11.672Z,21.50
2022-09-03T11:35:42.554Z,21.60
2022-09-03T11:38:24.687Z,21.80
2022-09-03T11:41:02.539Z,22.00
2022-09-03T11:43:33.092Z,21.50
2022-09-03T11:46:12.865Z,21.30
2022-09-03T11:48:44.833Z,21.30
2022-09-03T11:51:22.153Z,21.10
2022-09-03T11:53:57.725Z,21.10
2022-09-03T11:56:26.629Z,21.40
2022-09-03T11:59:20.008Z,21.50
2022-09-03T12:01:53.254Z,21.50
2022-09-03T12:04:25.418Z,21.30
2022-09-03T12:07:26.764Z,21.10
2022-09-03T12:10:11.108Z,21.10
2022-09-03T12:12:58.567Z,20.90
2022-09-03T12:15:46.947Z,21.20
2022-09-03T12:18:22.484Z,21.30
2022-09-03T12:21:03.723Z,21.50
2022-09-03T12:23:33.395Z,21.50
2022-09-03T12:26:07.312Z,21.50
2022-09-03T12:28:42.975Z,21.50
2022-09-03T12:31:22.957Z,21.50
2022-09-03T12:33:53.841Z,21.50
2022-09-03T12:36:23.235Z,21.50
2022-09-03T12:39:10.964Z,21.40
2022-09-03T12:41:39.510Z,21.40
2022-09-03T12:44:07.459Z,21.40
2022-09-03T12:46:36.684Z,21.40
2022-09-03T12:52:05.763Z,21.70
2022-09-03T12:54:35.284Z,22.00
2022-09-03T12:57:03.733Z,22.20
2022-09-03T12:59:36.047Z,22.30
2022-09-03T13:02:14.118Z,22.40
2022-09-03T13:04:43.462Z,22.60
2022-09-03T13:07:16.320Z,22.70
2022-09-03T13:09:44.224Z,22.70
2022-09-03T13:12:23.571Z,22.60
2022-09-03T13:14:52.777Z,22.60
2022-09-03T13:17:36.291Z,22.70
2022-09-03T13:20:22.110Z,22.90
2022-09-03T13:23:08.814Z,23.10
2022-09-03T13:25:46.396Z,23.00
2022-09-03T13:28:27.943Z,23.00
2022-09-03T13:31:01.389Z,23.00
2022-09-03T13:33:38.283Z,23.00
2022-09-03T13:36:14.851Z,23.10
2022-09-03T13:38:50.088Z,23.00
2022-09-03T13:41:29.376Z,23.00
2022-09-03T13:44:07.849Z,23.00
2022-09-03T13:46:44.239Z,22.90
2022-09-03T13:50:00.645Z,22.70
2022-09-03T13:52:35.635Z,22.70
2022-09-03T13:55:11.730Z,22.60
2022-09-03T13:57:46.812Z,22.50
2022-09-03T14:00:25.117Z,22.60
2022-09-03T14:02:56.981Z,22.70
2022-09-03T14:05:42.806Z,22.60
2022-09-03T14:08:21.214Z,22.70
2022-09-03T14:11:03.462Z,22.70
2022-09-03T14:13:42.247Z,22.60
2022-09-03T14:16:16.864Z,22.70
2022-09-03T14:18:53.515Z,22.60
2022-09-03T14:21:26.623Z,22.80
2022-09-03T14:24:05.337Z,22.70
2022-09-03T14:26:42.013Z,22.60
2022-09-03T14:29:18.324Z,22.70
2022-09-03T14:32:11.959Z,22.80
2022-09-03T14:34:53.993Z,22.80
2022-09-03T14:37:40.943Z,22.80
2022-09-03T14:40:15.600Z,22.80
2022-09-03T14:42:58.222Z,22.70
2022-09-03T14:45:44.395Z,22.80
2022-09-03T14:48:38.438Z,22.90
2022-09-03T14:51:20.840Z,22.80
2022-09-03T14:54:19.937Z,22.80
2022-09-03T14:56:51.593Z,23.00
2022-09-03T14:59:37.305Z,23.00
2022-09-03T15:02:28.704Z,23.10
2022-09-03T15:05:12.098Z,23.00
2022-09-03T15:07:46.826Z,23.10
2022-09-03T15:10:27.980Z,23.20
2022-09-03T15:12:59.901Z,23.20
2022-09-03T15:15:38.214Z,23.20
2022-09-03T15:18:17.930Z,23.20
2022-09-03T15:20:51.389Z,23.30
2022-09-03T15:23:31.443Z,23.40
2022-09-03T15:26:26.482Z,23.50
2022-09-03T15:29:13.799Z,23.50
2022-09-03T15:31:52.826Z,23.40
2022-09-03T15:34:41.115Z,23.30
2022-09-03T15:37:14.385Z,23.30
2022-09-03T15:39:46.997Z,23.30
2022-09-03T15:42:24.823Z,23.20
2022-09-03T15:44:55.907Z,23.20
2022-09-03T15:47:50.879Z,23.10
2022-09-03T15:50:32.880Z,23.20
2022-09-03T15:53:05.961Z,23.20
2022-09-03T15:55:38.445Z,23.20
2022-09-03T15:58:18.795Z,23.10
2022-09-03T16:01:03.634Z,23.10
2022-09-03T16:03:46.808Z,23.00
2022-09-03T16:06:37.515Z,23.00
2022-09-03T16:09:18.845Z,22.90
2022-09-03T16:11:56.828Z,22.80
2022-09-03T16:14:32.235Z,22.90
2022-09-03T16:17:06.207Z,22.80
2022-09-03T16:19:42.455Z,23.00
2022-09-03T16:22:18.368Z,23.00
2022-09-03T16:24:50.229Z,22.90
2022-09-03T16:27:22.182Z,22.90
2022-09-03T16:30:01.776Z,22.80
2022-09-03T16:32:45.321Z,22.60
2022-09-03T16:35:23.587Z,22.50
2022-09-03T16:38:04.842Z,22.40
2022-09-03T16:40:41.316Z,22.30
2022-09-03T16:43:39.724Z,22.30
2022-09-03T16:46:21.080Z,22.20
2022-09-03T16:48:59.685Z,22.20
2022-09-03T16:51:36.248Z,22.10
2022-09-03T16:54:19.741Z,22.20
2022-09-03T16:57:00.662Z,22.40
2022-09-03T16:59:53.371Z,22.30
2022-09-03T17:02:49.794Z,22.40
2022-09-03T17:05:32.311Z,22.30
2022-09-03T17:08:12.720Z,22.30
2022-09-03T17:10:47.035Z,22.20
2022-09-03T17:13:42.966Z,22.10
2022-09-03T17:16:24.508Z,22.00
2022-09-03T17:19:02.836Z,21.80
2022-09-03T17:21:47.675Z,21.70
2022-09-03T17:24:33.741Z,21.70
2022-09-03T17:27:23.315Z,21.60
2022-09-03T17:30:05.012Z,21.70
2022-09-03T17:32:57.349Z,21.70
2022-09-03T17:35:38.301Z,21.40
2022-09-03T17:38:18.511Z,21.30
2022-09-03T17:40:59.590Z,21.20
2022-09-03T17:43:36.293Z,21.10
2022-09-03T17:46:15.092Z,21.00
2022-09-03T17:48:51.485Z,21.00
2022-09-03T17:51:32.731Z,20.90
2022-09-03T17:54:07.385Z,20.80
2022-09-03T17:56:45.980Z,20.70
2022-09-03T17:59:34.128Z,20.70
2022-09-03T18:02:06.780Z,20.70
2022-09-03T18:04:47.688Z,20.80
2022-09-03T18:07:25.372Z,20.80
2022-09-03T18:10:03.319Z,20.80
2022-09-03T18:12:39.637Z,20.70
2022-09-03T18:15:14.340Z,20.60
2022-09-03T18:17:47.565Z,20.60
2022-09-03T18:20:33.618Z,20.60
2022-09-03T18:23:26.189Z,20.50
2022-09-03T18:26:15.991Z,20.10
2022-09-03T18:29:06.022Z,20.10
2022-09-03T18:31:51.426Z,20.10
2022-09-03T18:34:40.520Z,20.00
2022-09-03T18:37:26.925Z,19.90
2022-09-03T18:40:14.129Z,19.90
2022-09-03T18:43:10.139Z,19.70
2022-09-03T18:49:14.128Z,19.70
2022-09-03T18:52:10.663Z,19.50
2022-09-03T18:55:10.488Z,19.40
2022-09-03T18:58:08.991Z,19.30
2022-09-03T19:00:59.344Z,19.30
2022-09-03T19:04:02.559Z,19.20
2022-09-03T19:06:56.613Z,19.20
2022-09-03T19:09:55.477Z,19.10
2022-09-03T19:12:59.307Z,19.10
2022-09-03T19:15:50.132Z,19.10
2022-09-03T19:18:49.692Z,19.20
2022-09-03T19:21:46.242Z,19.30
2022-09-03T19:24:31.724Z,19.20
2022-09-03T19:27:53.057Z,19.20
2022-09-03T19:30:39.658Z,19.10
2022-09-03T19:33:32.464Z,19.00
2022-09-03T19:36:27.380Z,18.90
2022-09-03T19:39:27.526Z,18.90
2022-09-03T19:42:21.347Z,18.70
2022-09-03T19:45:17.817Z,18.60
2022-09-03T19:48:13.825Z,18.50
2022-09-03T19:51:05.921Z,18.50
2022-09-03T19:53:53.328Z,18.60
2022-09-03T19:56:44.265Z,18.70
2022-09-03T19:59:35.813Z,18.60
2022-09-03T20:02:21.269Z,18.50
2022-09-03T20:05:11.525Z,18.40
2022-09-03T20:07:58.635Z,18.50
2022-09-03T20:10:27.549Z,18.40
2022-09-03T20:13:04.262Z,18.50
2022-09-03T20:15:45.579Z,18.40
2022-09-03T20:18:19.985Z,18.30
2022-09-03T20:20:55.513Z,18.10
2022-09-03T20:23:31.459Z,18.00
2022-09-03T20:26:19.993Z,18.00
2022-09-03T20:29:08.836Z,18.00
2022-09-03T20:31:49.109Z,18.00
2022-09-03T20:34:29.929Z,18.10
2022-09-03T20:37:09.636Z,18.10
2022-09-03T20:39:51.325Z,18.10
2022-09-03T20:42:36.665Z,18.10
2022-09-03T20:45:10.882Z,18.00
2022-09-03T20:47:59.763Z,18.00
2022-09-03T20:50:43.695Z,17.80
2022-09-03T20:53:26.805Z,17.80
2022-09-03T20:56:04.362Z,17.90
2022-09-03T20:58:40.930Z,17.90
2022-09-03T21:01:13.613Z,18.00
2022-09-03T21:03:53.660Z,17.90
2022-09-03T21:06:31.379Z,17.80
2022-09-03T21:09:14.663Z,17.70
2022-09-03T21:11:48.860Z,17.70
2022-09-03T21:14:33.451Z,17.70
2022-09-03T21:17:18.943Z,17.60
2022-09-03T21:20:00.679Z,17.60
2022-09-03T21:22:34.702Z,17.50
2022-09-03T21:25:06.782Z,17.40
2022-09-03T21:27:40.711Z,17.50
2022-09-03T21:30:10.584Z,17.50
2022-09-03T21:32:45.193Z,17.40
2022-09-03T21:35:21.540Z,17.40
2022-09-03T21:37:55.745Z,17.40
2022-09-03T21:40:29.240Z,17.30
2022-09-03T21:43:06.792Z,17.30
2022-09-03T21:45:40.039Z,17.30
2022-09-03T21:48:13.643Z,17.30
2022-09-03T21:50:48.608Z,17.30
2022-09-03T21:53:22.456Z,17.30
2022-09-03T21:56:07.521Z,17.10
2022-09-03T21:58:52.426Z,17.10
2022-09-03T22:01:27.262Z,17.20
2022-09-03T22:03:55.808Z,17.20
2022-09-03T22:06:29.524Z,17.20
2022-09-03T22:09:08.946Z,17.10
2022-09-03T22:11:45.359Z,17.10
2022-09-03T22:14:17.402Z,17.10
2022-09-03T22:16:50.099Z,17.00
2022-09-03T22:19:18.125Z,17.00
2022-09-03T22:21:59.641Z,17.10
2022-09-03T22:24:40.290Z,16.90
2022-09-03T22:27:18.447Z,16.70
2022-09-03T22:30:02.499Z,16.80
2022-09-03T22:32:47.336Z,16.70
2022-09-03T22:35:29.017Z,16.60
2022-09-03T22:38:10.459Z,16.60
2022-09-03T22:40:52.193Z,16.70
2022-09-03T22:43:36.700Z,16.60
2022-09-03T22:46:12.934Z,16.50
2022-09-03T22:49:07.324Z,16.40
2022-09-03T22:51:47.698Z,16.40
2022-09-03T22:54:27.183Z,16.50
2022-09-03T22:56:56.996Z,16.60
2022-09-03T22:59:29.312Z,16.50
2022-09-03T23:02:07.205Z,16.50
2022-09-03T23:04:41.296Z,16.40
2022-09-03T23:07:18.852Z,16.40
2022-09-03T23:09:51.113Z,16.30
2022-09-03T23:12:24.117Z,16.20
2022-09-03T23:14:57.990Z,16.20
2022-09-03T23:22:35.261Z,16.30
2022-09-03T23:25:09.610Z,16.30
2022-09-03T23:27:42.817Z,16.30
2022-09-03T23:30:11.087Z,16.30
2022-09-03T23:32:40.221Z,16.40
2022-09-03T23:35:13.178Z,16.30
2022-09-03T23:37:55.039Z,16.20
2022-09-03T23:40:43.857Z,16.20
2022-09-03T23:43:37.731Z,16.30
2022-09-03T23:46:14.065Z,16.30
2022-09-03T23:48:58.001Z,16.30
2022-09-03T23:51:34.167Z,16.10
2022-09-03T23:54:10.931Z,16.00
2022-09-03T23:57:02.015Z,16.00
2022-09-03T23:59:41.051Z,16.10
